createdAt,value
2019-02-11T00:01:54.083Z,99978.73
2019-02-11T00:07:59.983Z,99984.42
2019-02-11T00:14:05.819Z,99990.58
2019-02-11T00:20:11.744Z,100018.39
2019-02-11T00:26:17.598Z,100026.70
2019-02-11T00:32:26.482Z,100034.59
2019-02-11T00:38:32.345Z,100061.14
2019-02-11T00:44:38.535Z,100072.95
2019-02-11T00:50:44.265Z,100077.31
2019-02-11T00:56:49.996Z,100092.98
2019-02-11T01:02:56.124Z,100116.09
2019-02-11T01:09:01.946Z,100129.60
2019-02-11T01:15:08.752Z,100133.97
2019-02-11T01:21:15.020Z,100153.13
2019-02-11T01:27:20.988Z,100173.59
2019-02-11T01:33:26.859Z,100187.92
2019-02-11T01:39:32.620Z,100196.30
2019-02-11T01:45:38.523Z,100212.00
2019-02-11T01:51:44.605Z,100227.62
2019-02-11T01:57:50.385Z,100227.25
2019-02-11T02:03:56.190Z,100230.70
2019-02-11T02:10:02.083Z,100245.52
2019-02-11T02:16:08.000Z,100252.99
2019-02-11T02:22:13.836Z,100248.63
2019-02-11T02:28:19.777Z,100269.98
2019-02-11T02:34:26.186Z,100284.77
2019-02-11T02:40:32.095Z,100305.62
2019-02-11T02:46:37.918Z,100313.81
2019-02-11T02:52:43.758Z,100326.45
2019-02-11T02:58:49.792Z,100334.36
2019-02-11T03:04:55.921Z,100338.71
2019-02-11T03:11:01.778Z,100359.59
2019-02-11T03:17:07.685Z,100355.68
2019-02-11T03:23:13.445Z,100375.67
2019-02-11T03:29:19.198Z,100395.20
2019-02-11T03:35:24.985Z,100402.10
2019-02-11T03:41:31.227Z,100405.20
2019-02-11T03:47:37.475Z,100419.97
2019-02-11T03:53:43.327Z,100440.52
2019-02-11T03:59:49.514Z,100447.94
2019-02-11T04:05:55.391Z,100462.77
2019-02-11T04:12:01.325Z,100473.30
2019-02-11T04:18:07.123Z,100491.61
2019-02-11T04:24:13.234Z,100506.38
2019-02-11T04:30:20.033Z,100510.70
2019-02-11T04:36:25.738Z,100535.00
2019-02-11T04:42:31.873Z,100534.23
2019-02-11T04:48:37.927Z,100549.40
2019-02-11T04:54:44.100Z,100562.89
2019-02-11T05:00:49.953Z,100581.60
2019-02-11T05:06:55.787Z,100595.03
2019-02-11T05:13:01.518Z,100612.03
2019-02-11T05:19:07.239Z,100614.68
2019-02-11T05:25:13.265Z,100606.91
2019-02-11T05:31:19.380Z,100605.17
2019-02-11T05:37:25.235Z,100624.29
2019-02-11T05:43:31.168Z,100642.64
2019-02-11T05:49:37.099Z,100640.17
2019-02-11T05:55:42.889Z,100644.59
2019-02-11T06:01:49.063Z,100650.69
2019-02-11T06:07:55.110Z,100672.13
2019-02-11T06:14:00.969Z,100690.78
2019-02-11T06:20:07.715Z,100717.41
2019-02-11T06:26:13.507Z,100736.13
2019-02-11T06:32:19.727Z,100756.92
2019-02-11T06:38:25.621Z,100763.69
2019-02-11T06:44:31.625Z,100780.73
2019-02-11T06:50:37.806Z,100807.25
2019-02-11T06:56:43.665Z,100821.23
2019-02-11T07:02:49.553Z,100830.80
2019-02-11T07:08:55.538Z,100866.46
2019-02-11T07:15:01.355Z,100869.03
2019-02-11T07:21:07.342Z,100871.03
2019-02-11T07:27:13.459Z,100891.25
2019-02-11T07:33:19.531Z,100902.25
2019-02-11T07:39:31.428Z,100914.56
2019-02-11T07:45:42.770Z,100914.84
2019-02-11T07:51:48.752Z,100933.41
2019-02-11T07:57:55.008Z,100936.50
2019-02-11T08:04:00.757Z,100953.44
2019-02-11T08:10:07.315Z,100956.23
2019-02-11T08:16:13.032Z,100982.59
2019-02-11T08:22:18.873Z,100987.86
2019-02-11T08:28:24.925Z,101006.87
2019-02-11T08:34:30.867Z,101008.94
2019-02-11T08:40:36.884Z,101021.02
2019-02-11T08:46:43.007Z,101040.06
2019-02-11T08:52:49.704Z,101045.73
2019-02-11T08:58:55.582Z,101065.42
2019-02-11T09:05:01.642Z,101070.25
2019-02-11T09:11:07.591Z,101077.70
2019-02-11T09:17:32.432Z,101097.67
2019-02-11T09:23:38.516Z,101086.39
2019-02-11T09:29:44.355Z,101108.06
2019-02-11T09:35:51.147Z,101128.37
2019-02-11T09:41:57.070Z,101134.53
2019-02-11T09:48:02.857Z,101152.32
2019-02-11T09:54:08.863Z,101162.92
2019-02-11T10:00:14.829Z,101168.63
2019-02-11T10:06:20.746Z,101182.95
2019-02-11T10:12:26.789Z,101183.06
2019-02-11T10:18:32.667Z,101186.73
2019-02-11T10:24:38.546Z,101195.58
2019-02-11T10:30:44.548Z,101209.41
2019-02-11T10:36:50.424Z,101223.18
2019-02-11T10:42:56.411Z,101239.40
2019-02-11T10:49:02.365Z,101242.30
2019-02-11T10:55:10.892Z,101266.55
2019-02-11T11:01:16.686Z,101273.17
2019-02-11T11:07:22.665Z,101280.94
2019-02-11T11:13:28.853Z,101291.08
2019-02-11T11:19:34.790Z,101302.08
2019-02-11T11:25:40.994Z,101307.75
2019-02-11T11:31:47.251Z,101312.77
2019-02-11T11:37:53.211Z,101331.81
2019-02-11T11:43:59.339Z,101352.23
2019-02-11T11:50:05.758Z,101357.49
2019-02-11T11:56:11.511Z,101391.55
2019-02-11T12:02:17.647Z,101380.72
2019-02-11T12:08:23.634Z,101379.50
2019-02-11T12:14:30.853Z,101392.09
2019-02-11T12:20:37.212Z,101409.77
2019-02-11T12:26:43.308Z,101414.84
2019-02-11T12:32:49.358Z,101414.05
2019-02-11T12:38:56.945Z,101414.08
2019-02-11T12:45:03.295Z,101442.67
2019-02-11T12:51:09.155Z,101485.89
2019-02-11T12:57:15.034Z,101496.30
2019-02-11T13:03:21.017Z,101508.63
2019-02-11T13:09:27.011Z,101484.77
2019-02-11T13:15:57.408Z,101490.39
2019-02-11T13:21:41.076Z,101523.11
2019-02-11T13:27:47.088Z,101524.97
2019-02-11T13:33:52.903Z,101559.12
2019-02-11T13:39:58.870Z,101573.88
2019-02-11T13:46:05.114Z,101577.51
2019-02-11T13:52:11.173Z,101586.41
2019-02-11T13:58:17.126Z,101586.73
2019-02-11T14:04:22.925Z,101588.53
2019-02-11T14:10:28.872Z,101596.55
2019-02-11T14:16:34.581Z,101617.84
2019-02-11T14:22:40.450Z,101634.72
2019-02-11T14:28:49.502Z,101647.83
2019-02-11T14:34:53.896Z,101657.27
2019-02-11T14:40:59.937Z,101651.48
2019-02-11T14:47:05.993Z,101675.22
2019-02-11T14:53:11.943Z,101676.64
2019-02-11T14:59:17.981Z,101681.84
2019-02-11T15:05:23.791Z,101697.03
2019-02-11T15:11:29.707Z,101705.48
2019-02-11T15:17:35.708Z,101714.32
2019-02-11T15:23:41.480Z,101735.96
2019-02-11T15:29:47.358Z,101746.44
2019-02-11T15:35:53.638Z,101753.55
2019-02-11T15:41:59.434Z,101763.88
2019-02-11T15:48:05.332Z,101781.09
2019-02-11T15:54:11.068Z,101808.39
2019-02-11T16:00:19.478Z,101825.44
2019-02-11T16:06:25.286Z,101841.48
2019-02-11T16:12:31.037Z,101843.50
2019-02-11T16:18:36.851Z,101869.66
2019-02-11T16:24:42.743Z,101884.87
2019-02-11T16:30:48.690Z,101914.45
2019-02-11T16:36:55.279Z,101938.66
2019-02-11T16:43:01.126Z,101941.84
2019-02-11T16:49:07.174Z,101968.66
2019-02-11T16:55:13.081Z,101986.98
2019-02-11T17:01:19.123Z,101995.50
2019-02-11T17:07:24.900Z,102017.41
2019-02-11T17:13:30.696Z,102032.91
2019-02-11T17:19:36.525Z,102089.39
2019-02-11T17:25:42.369Z,102109.84
2019-02-11T17:31:48.255Z,102102.80
2019-02-11T17:37:54.134Z,102109.78
2019-02-11T17:43:59.893Z,102124.55
2019-02-11T17:50:05.987Z,102129.91
2019-02-11T17:56:11.942Z,102145.02
2019-02-11T18:02:18.039Z,102147.84
2019-02-11T18:08:23.918Z,102168.08
2019-02-11T18:14:29.639Z,102180.81
2019-02-11T18:20:35.600Z,102171.48
2019-02-11T18:26:45.410Z,102182.36
2019-02-11T18:32:51.217Z,102195.94
2019-02-11T18:38:57.090Z,102207.89
2019-02-11T18:45:02.872Z,102220.61
2019-02-11T18:51:08.802Z,102237.31
2019-02-11T18:57:14.727Z,102232.25
2019-02-11T19:03:20.719Z,102244.22
2019-02-11T19:09:26.615Z,102272.24
2019-02-11T19:15:32.435Z,102245.31
2019-02-11T19:21:38.276Z,102252.00
2019-02-11T19:27:44.376Z,102228.72
2019-02-11T19:33:50.479Z,102223.22
2019-02-11T19:39:56.310Z,102261.91
2019-02-11T19:46:02.548Z,102276.80
2019-02-11T19:52:08.749Z,102306.37
2019-02-11T19:58:14.469Z,102290.63
2019-02-11T20:04:20.401Z,102273.51
2019-02-11T20:10:26.521Z,102311.65
2019-02-11T20:16:32.308Z,102317.30
2019-02-11T20:22:38.436Z,102319.42
2019-02-11T20:28:44.273Z,102333.96
2019-02-11T20:34:50.563Z,102333.81
2019-02-11T20:40:56.466Z,102346.00
2019-02-11T20:47:02.338Z,102360.45
2019-02-11T20:53:08.239Z,102376.47
2019-02-11T20:59:14.110Z,102395.00
2019-02-11T21:05:22.900Z,102395.97
2019-02-11T21:11:29.551Z,102399.63
2019-02-11T21:17:35.499Z,102396.47
2019-02-11T21:23:41.784Z,102413.16
2019-02-11T21:29:47.568Z,102415.60
2019-02-11T21:35:53.467Z,102426.13
2019-02-11T21:42:01.161Z,102442.89
2019-02-11T21:48:07.304Z,102450.89
2019-02-11T21:54:13.261Z,102458.44
2019-02-11T22:00:20.305Z,102465.64
2019-02-11T22:06:26.688Z,102462.27
2019-02-11T22:12:32.589Z,102475.75
2019-02-11T22:18:38.886Z,102474.73
2019-02-11T22:24:44.879Z,102488.64
2019-02-11T22:30:50.734Z,102478.39
2019-02-11T22:36:57.023Z,102477.60
2019-02-11T22:43:03.055Z,102481.95
2019-02-11T22:49:08.994Z,102485.06
2019-02-11T22:55:15.358Z,102486.23
2019-02-11T23:01:22.124Z,102494.75
2019-02-11T23:07:28.980Z,102492.69
2019-02-11T23:13:35.177Z,102508.91
2019-02-11T23:19:40.931Z,102526.61
2019-02-11T23:25:46.869Z,102538.84
2019-02-11T23:31:52.808Z,102521.71
2019-02-11T23:37:59.059Z,102509.21
2019-02-11T23:44:04.994Z,102520.42
2019-02-11T23:50:11.011Z,102537.08
2019-02-11T23:56:17.009Z,102540.76
